Time;durP1;ratioP1;P1;durP2;ratioP2;P2;SDS_P1;SDS_P2;PMS_P1;PMS_P2;Temp;Humidity;BMP_temperature;BMP_pressure;BME280_temperature;BME280_humidity;BME280_pressure;Samples;Min_cycle;Max_cycle;Signal;HPM_P1;HPM_P2
2023/10/09 00:00:35;;;;;;;;;;;;;;;;;;4996857;28;19925;-66
2023/10/09 00:02:51;;;;;;;;;;;;;;;;;;4996870;28;19933;-66
2023/10/09 00:05:23;;;;;;;;;;;;;;;;;;5013899;28;19930;-67
2023/10/09 00:07:49;;;;;;;;;;;;;;;;;;5014345;28;19961;-67
2023/10/09 00:10:16;;;;;;;;;;;;;;;;;;5014067;28;20018;-66
2023/10/09 00:12:43;;;;;;;;;;;;;;;;;;5014308;28;20248;-66
2023/10/09 00:15:12;;;;;;;;;;;;;;;;;;5013937;28;20015;-66
2023/10/09 00:17:39;;;;;;;;;;;;;;;;;;5001720;28;19972;-66
2023/10/09 00:20:08;;;;;;;;;;;;;;;;;;4994214;28;20388;-67
2023/10/09 00:22:41;;;;;;;;;;;;;;;;;;4994551;28;19926;-66
2023/10/09 00:25:21;;;;;;;;;;;;;;;;;;4994242;28;19925;-66
2023/10/09 00:27:48;;;;;;;;;;;;;;;;;;4976760;28;19922;-66
2023/10/09 00:30:32;;;;;;;;;;;;;;;;;;4994195;28;19976;-66
2023/10/09 00:35:36;;;;;;;;;;;;;;;;;;4976517;28;20287;-66
2023/10/09 00:38:14;;;;;;;;;;;;;;;;;;4994269;28;19926;-67
2023/10/09 00:40:45;;;;;;;;;;;;;;;;;;4976202;28;19929;-66
2023/10/09 00:43:13;;;;;;;;;;;;;;;;;;4976517;28;19921;-66
2023/10/09 00:45:40;;;;;;;;;;;;;;;;;;4993830;28;19926;-66
2023/10/09 00:48:06;;;;;;;;;;;;;;;;;;4992648;28;19921;-67
2023/10/09 00:50:36;;;;;;;;;;;;;;;;;;4993696;28;20013;-67
2023/10/09 00:53:09;;;;;;;;;;;;;;;;;;5005187;28;19921;-66
2023/10/09 00:55:44;;;;;;;;;;;;;;;;;;5013436;28;20339;-67
2023/10/09 00:58:12;;;;;;;;;;;;;;;;;;5013273;28;20378;-66
2023/10/09 01:03:19;;;;;;;;;;;;;;;;;;5013430;28;20012;-67
2023/10/09 01:08:31;;;;;;;;;;;;;;;;;;5013260;28;19933;-66
2023/10/09 01:10:57;;;;;;;;;;;;;;;;;;4995293;28;19968;-66
2023/10/09 01:13:34;;;;;;;;;;;;;;;;;;5012488;28;19921;-66
2023/10/09 01:16:03;;;;;;;;;;;;;;;;;;5012243;28;19984;-66
2023/10/09 01:18:35;;;;;;;;;;;;;;;;;;4993712;28;19926;-66
2023/10/09 01:21:02;;;;;;;;;;;;;;;;;;4993368;28;19925;-66
2023/10/09 01:23:29;;;;;;;;;;;;;;;;;;4975763;28;20394;-66
2023/10/09 01:25:55;;;;;;;;;;;;;;;;;;4993151;28;19965;-67
2023/10/09 01:28:21;;;;;;;;;;;;;;;;;;4993042;28;19991;-66
2023/10/09 01:30:47;;;;;;;;;;;;;;;;;;4993282;28;19921;-67
2023/10/09 01:33:22;;;;;;;;;;;;;;;;;;4993228;28;19965;-66
2023/10/09 01:35:49;;;;;;;;;;;;;;;;;;4992919;28;20434;-66
2023/10/09 01:38:15;;;;;;;;;;;;;;;;;;4993152;28;19969;-67
2023/10/09 01:40:43;;;;;;;;;;;;;;;;;;4992087;28;20446;-66
2023/10/09 01:43:10;;;;;;;;;;;;;;;;;;4992166;28;20016;-66
2023/10/09 01:45:42;;;;;;;;;;;;;;;;;;4991180;28;19961;-67
2023/10/09 01:48:08;;;;;;;;;;;;;;;;;;4992352;28;19921;-67
2023/10/09 01:50:35;;;;;;;;;;;;;;;;;;4991928;28;19926;-67
2023/10/09 01:53:02;;;;;;;;;;;;;;;;;;5002951;28;19925;-67
2023/10/09 01:55:29;;;;;;;;;;;;;;;;;;5011406;28;19984;-67
2023/10/09 01:57:58;;;;;;;;;;;;;;;;;;5011635;28;19983;-68
2023/10/09 02:00:27;;;;;;;;;;;;;;;;;;5011432;28;19979;-67
2023/10/09 02:02:53;;;;;;;;;;;;;;;;;;4993714;28;19921;-66
2023/10/09 02:07:51;;;;;;;;;;;;;;;;;;4994482;28;19925;-66
2023/10/09 02:13:06;;;;;;;;;;;;;;;;;;5012339;28;19960;-66
2023/10/09 02:18:26;;;;;;;;;;;;;;;;;;4995537;28;20268;-66
2023/10/09 02:21:12;;;;;;;;;;;;;;;;;;4992734;28;19925;-66
2023/10/09 02:23:46;;;;;;;;;;;;;;;;;;4992577;28;19926;-66
2023/10/09 02:29:03;;;;;;;;;;;;;;;;;;4995314;28;19961;-66
2023/10/09 02:31:44;;;;;;;;;;;;;;;;;;4996455;28;19925;-66
2023/10/09 02:34:15;;;;;;;;;;;;;;;;;;4996447;28;19925;-67
2023/10/09 02:36:49;;;;;;;;;;;;;;;;;;4996356;28;19941;-66
2023/10/09 02:39:24;;;;;;;;;;;;;;;;;;4996119;28;19930;-65
2023/10/09 02:41:50;;;;;;;;;;;;;;;;;;4978557;28;19937;-67
2023/10/09 02:44:17;;;;;;;;;;;;;;;;;;4996329;28;19928;-66
2023/10/09 02:46:44;;;;;;;;;;;;;;;;;;4996031;28;20008;-66
2023/10/09 02:49:15;;;;;;;;;;;;;;;;;;4996089;28;19933;-66
2023/10/09 02:51:52;;;;;;;;;;;;;;;;;;4996349;28;19921;-66
2023/10/09 02:54:18;;;;;;;;;;;;;;;;;;5015547;28;20536;-66
2023/10/09 02:56:47;;;;;;;;;;;;;;;;;;5015471;28;19930;-66
2023/10/09 02:59:13;;;;;;;;;;;;;;;;;;5015407;28;20012;-66
2023/10/09 03:01:39;;;;;;;;;;;;;;;;;;5015248;28;20012;-67
2023/10/09 03:04:05;;;;;;;;;;;;;;;;;;4997690;28;19921;-66
2023/10/09 03:06:33;;;;;;;;;;;;;;;;;;5015465;28;20016;-66
2023/10/09 03:09:00;;;;;;;;;;;;;;;;;;5015426;28;19932;-66
2023/10/09 03:11:32;;;;;;;;;;;;;;;;;;5015383;28;19976;-65
2023/10/09 03:13:57;;;;;;;;;;;;;;;;;;5015141;28;19921;-65
2023/10/09 03:16:23;;;;;;;;;;;;;;;;;;5012790;28;19951;-66
2023/10/09 03:18:49;;;;;;;;;;;;;;;;;;4977799;28;19925;-66
2023/10/09 03:21:16;;;;;;;;;;;;;;;;;;4995606;28;19922;-66
2023/10/09 03:23:43;;;;;;;;;;;;;;;;;;4995352;28;19971;-66
2023/10/09 03:26:10;;;;;;;;;;;;;;;;;;4977781;28;20322;-66
2023/10/09 03:28:36;;;;;;;;;;;;;;;;;;4995219;28;19922;-66
2023/10/09 03:31:02;;;;;;;;;;;;;;;;;;4978015;28;20060;-65
2023/10/09 03:33:32;;;;;;;;;;;;;;;;;;4978043;28;19926;-65
2023/10/09 03:35:58;;;;;;;;;;;;;;;;;;4995300;28;19926;-66
2023/10/09 03:38:24;;;;;;;;;;;;;;;;;;4995152;28;19932;-65
2023/10/09 03:40:50;;;;;;;;;;;;;;;;;;4994431;28;19930;-67
2023/10/09 03:43:16;;;;;;;;;;;;;;;;;;4977680;28;19926;-66
2023/10/09 03:45:54;;;;;;;;;;;;;;;;;;4995148;28;20462;-67
2023/10/09 03:48:26;;;;;;;;;;;;;;;;;;4995043;28;19929;-67
2023/10/09 03:51:08;;;;;;;;;;;;;;;;;;4995085;28;20280;-67
2023/10/09 03:53:39;;;;;;;;;;;;;;;;;;5010571;28;19926;-65
2023/10/09 03:56:15;;;;;;;;;;;;;;;;;;5014419;28;19933;-66
2023/10/09 03:58:48;;;;;;;;;;;;;;;;;;4996574;28;19968;-66
2023/10/09 04:01:23;;;;;;;;;;;;;;;;;;5014361;28;19929;-66
2023/10/09 04:03:54;;;;;;;;;;;;;;;;;;5014288;28;20378;-66
2023/10/09 04:06:21;;;;;;;;;;;;;;;;;;5014194;28;19929;-66
2023/10/09 04:08:48;;;;;;;;;;;;;;;;;;5014214;28;19922;-67
2023/10/09 04:11:17;;;;;;;;;;;;;;;;;;5014062;28;19987;-66
2023/10/09 04:13:45;;;;;;;;;;;;;;;;;;5013888;28;19921;-67
2023/10/09 04:16:33;;;;;;;;;;;;;;;;;;5013394;28;20440;-66
2023/10/09 04:18:57;;;;;;;;;;;;;;;;;;4994198;28;19933;-66
2023/10/09 04:21:36;;;;;;;;;;;;;;;;;;4994179;28;19922;-67
2023/10/09 04:26:37;;;;;;;;;;;;;;;;;;4994460;28;19929;-67
2023/10/09 04:29:03;;;;;;;;;;;;;;;;;;4994095;28;19922;-66
2023/10/09 04:31:34;;;;;;;;;;;;;;;;;;4994230;28;19926;-66
2023/10/09 04:36:49;;;;;;;;;;;;;;;;;;4976462;28;19925;-65
2023/10/09 04:39:37;;;;;;;;;;;;;;;;;;4993759;28;19925;-67
2023/10/09 04:47:36;;;;;;;;;;;;;;;;;;4993917;28;20283;-66
2023/10/09 04:50:03;;;;;;;;;;;;;;;;;;4993698;28;19929;-66
2023/10/09 05:00:22;;;;;;;;;;;;;;;;;;5013322;28;20516;-67
2023/10/09 05:02:54;;;;;;;;;;;;;;;;;;5013045;28;20382;-67
2023/10/09 05:13:42;;;;;;;;;;;;;;;;;;5012782;28;19928;-66
2023/10/09 05:16:13;;;;;;;;;;;;;;;;;;5012775;28;20371;-66
2023/10/09 05:18:39;;;;;;;;;;;;;;;;;;4993300;28;19968;-66
2023/10/09 05:23:49;;;;;;;;;;;;;;;;;;4992543;28;19932;-66
2023/10/09 05:29:19;;;;;;;;;;;;;;;;;;4991184;28;19968;-65
2023/10/09 05:31:55;;;;;;;;;;;;;;;;;;4992558;28;19922;-66
2023/10/09 05:34:22;;;;;;;;;;;;;;;;;;4991828;28;19926;-67
2023/10/09 05:36:48;;;;;;;;;;;;;;;;;;4992025;28;19949;-66
2023/10/09 05:39:40;;;;;;;;;;;;;;;;;;4991569;28;19930;-67
2023/10/09 05:42:17;;;;;;;;;;;;;;;;;;4991796;28;20384;-66
2023/10/09 05:45:29;;;;;;;;;;;;;;;;;;4975161;28;19967;-66
2023/10/09 05:47:53;;;;;;;;;;;;;;;;;;5011200;28;19921;-67
2023/10/09 05:55:48;;;;;;;;;;;;;;;;;;5012089;28;20019;-65
2023/10/09 06:06:42;;;;;;;;;;;;;;;;;;5012101;28;19925;-66
2023/10/09 06:11:41;;;;;;;;;;;;;;;;;;5011776;28;19975;-67
2023/10/09 06:19:08;;;;;;;;;;;;;;;;;;4992011;28;19928;-66
2023/10/09 06:24:22;;;;;;;;;;;;;;;;;;4990907;28;20386;-66
2023/10/09 06:29:37;;;;;;;;;;;;;;;;;;4992547;28;19976;-67
2023/10/09 06:34:51;;;;;;;;;;;;;;;;;;4992168;28;19926;-66
2023/10/09 06:37:34;;;;;;;;;;;;;;;;;;4974776;28;19949;-67
2023/10/09 06:45:06;;;;;;;;;;;;;;;;;;4991568;28;19988;-67
2023/10/09 06:47:41;;;;;;;;;;;;;;;;;;4990971;28;20440;-66
2023/10/09 06:52:57;;;;;;;;;;;;;;;;;;5000537;28;19929;-66
2023/10/09 06:55:33;;;;;;;;;;;;;;;;;;4993271;28;20411;-67
2023/10/09 06:58:01;;;;;;;;;;;;;;;;;;5010883;28;19921;-67
2023/10/09 07:03:11;;;;;;;;;;;;;;;;;;5011331;28;20011;-66
2023/10/09 07:06:00;;;;;;;;;;;;;;;;;;5011693;28;19968;-66
2023/10/09 07:08:32;;;;;;;;;;;;;;;;;;5011476;28;19926;-67
2023/10/09 07:11:20;;;;;;;;;;;;;;;;;;5011706;28;19932;-66
2023/10/09 07:13:52;;;;;;;;;;;;;;;;;;5011440;28;19925;-66
2023/10/09 07:16:28;;;;;;;;;;;;;;;;;;4995146;28;19937;-66
2023/10/09 07:18:54;;;;;;;;;;;;;;;;;;4995652;28;19935;-66
2023/10/09 07:21:27;;;;;;;;;;;;;;;;;;4995268;28;19922;-66
2023/10/09 07:23:56;;;;;;;;;;;;;;;;;;4995555;28;19929;-66
2023/10/09 07:26:36;;;;;;;;;;;;;;;;;;4995338;28;20275;-66
2023/10/09 07:29:16;;;;;;;;;;;;;;;;;;4977843;28;19922;-66
2023/10/09 07:31:45;;;;;;;;;;;;;;;;;;4995404;28;19964;-67
2023/10/09 07:36:56;;;;;;;;;;;;;;;;;;4995227;28;19930;-66
2023/10/09 07:39:22;;;;;;;;;;;;;;;;;;4977436;28;19988;-66
2023/10/09 07:42:52;;;;;;;;;;;;;;;;;;4995183;28;19933;-66
2023/10/09 07:44:52;;;;;;;;;;;;;;;;;;4994352;28;19926;-66
2023/10/09 07:50:03;;;;;;;;;;;;;;;;;;4995178;28;19921;-66
2023/10/09 07:52:29;;;;;;;;;;;;;;;;;;5001634;28;19961;-67
2023/10/09 07:55:02;;;;;;;;;;;;;;;;;;5014584;28;20323;-66
2023/10/09 07:57:38;;;;;;;;;;;;;;;;;;5014136;28;20374;-67
2023/10/09 08:00:36;;;;;;;;;;;;;;;;;;5014379;28;19929;-66
2023/10/09 08:03:00;;;;;;;;;;;;;;;;;;5014114;28;20042;-66
2023/10/09 08:05:33;;;;;;;;;;;;;;;;;;5014304;28;19941;-66
2023/10/09 08:08:18;;;;;;;;;;;;;;;;;;4996418;28;20425;-66
2023/10/09 08:11:41;;;;;;;;;;;;;;;;;;4996379;28;20008;-66
2023/10/09 08:14:41;;;;;;;;;;;;;;;;;;5013924;28;20005;-66
2023/10/09 08:16:24;;;;;;;;;;;;;;;;;;5006750;28;19972;-66
2023/10/09 08:18:51;;;;;;;;;;;;;;;;;;4994766;28;19921;-66
2023/10/09 08:23:48;;;;;;;;;;;;;;;;;;4994136;28;20020;-66
2023/10/09 08:26:14;;;;;;;;;;;;;;;;;;4994252;28;19945;-66
2023/10/09 08:28:42;;;;;;;;;;;;;;;;;;4994059;28;19930;-66
2023/10/09 08:31:18;;;;;;;;;;;;;;;;;;4994162;28;19929;-67
2023/10/09 08:33:44;;;;;;;;;;;;;;;;;;4994262;28;20291;-67
2023/10/09 08:36:14;;;;;;;;;;;;;;;;;;4976494;28;19929;-68
2023/10/09 08:38:43;;;;;;;;;;;;;;;;;;4993802;28;19941;-66
2023/10/09 08:41:19;;;;;;;;;;;;;;;;;;4976612;28;19922;-67
2023/10/09 08:43:47;;;;;;;;;;;;;;;;;;4994005;28;19928;-67
2023/10/09 08:46:17;;;;;;;;;;;;;;;;;;4994102;28;19925;-67
2023/10/09 08:48:43;;;;;;;;;;;;;;;;;;4993857;28;19922;-67
2023/10/09 08:51:10;;;;;;;;;;;;;;;;;;4993930;28;20016;-67
2023/10/09 08:53:42;;;;;;;;;;;;;;;;;;5013279;22;21373;-62
2023/10/09 08:56:08;;;;;;;;;;;;;;;;;;4992389;28;19926;-62
2023/10/09 08:58:38;;;;;;;;;;;;;;;;;;4993332;28;19933;-61
2023/10/09 09:01:04;;;;;;;;;;;;;;;;;;4993779;28;19928;-61
2023/10/09 09:03:32;;;;;;;;;;;;;;;;;;4993516;28;19922;-61
2023/10/09 09:06:00;;;;;;;;;;;;;;;;;;4993723;28;19925;-62
2023/10/09 09:08:28;;;;;;;;;;;;;;;;;;4993608;28;19926;-60
2023/10/09 09:10:54;;;;;;;;;;;;;;;;;;4993419;28;20287;-61
2023/10/09 09:13:24;;;;;;;;;;;;;;;;;;4993502;28;19957;-61
2023/10/09 09:15:53;;;;;;;;;;;;;;;;;;4993549;28;20040;-61
2023/10/09 09:18:19;;;;;;;;;;;;;;;;;;4975676;28;19921;-61
2023/10/09 09:20:46;;;;;;;;;;;;;;;;;;4993627;28;19926;-61
2023/10/09 09:23:12;;;;;;;;;;;;;;;;;;4975908;28;20294;-61
2023/10/09 09:25:38;;;;;;;;;;;;;;;;;;4993277;28;20012;-61
2023/10/09 09:28:09;;;;;;;;;;;;;;;;;;4993215;28;19922;-61
2023/10/09 09:30:35;;;;;;;;;;;;;;;;;;4993297;28;19987;-61
2023/10/09 09:33:52;;;;;;;;;;;;;;;;;;4993002;28;19965;-61
2023/10/09 09:35:47;;;;;;;;;;;;;;;;;;4982148;28;20462;-61
2023/10/09 09:38:17;;;;;;;;;;;;;;;;;;4992468;28;20012;-61
2023/10/09 09:40:43;;;;;;;;;;;;;;;;;;4993219;28;19961;-61
2023/10/09 09:43:21;;;;;;;;;;;;;;;;;;4993096;28;19969;-61
2023/10/09 09:45:49;;;;;;;;;;;;;;;;;;4993039;28;19922;-61
2023/10/09 09:48:16;;;;;;;;;;;;;;;;;;4992665;28;19928;-62
2023/10/09 09:50:46;;;;;;;;;;;;;;;;;;4992703;28;20055;-61
2023/10/09 09:53:16;;;;;;;;;;;;;;;;;;4987773;28;19937;-61
2023/10/09 09:55:42;;;;;;;;;;;;;;;;;;4994415;28;19966;-61
2023/10/09 09:58:18;;;;;;;;;;;;;;;;;;5012442;28;19921;-61
2023/10/09 10:00:52;;;;;;;;;;;;;;;;;;5011462;28;20397;-61
2023/10/09 10:03:18;;;;;;;;;;;;;;;;;;4998412;28;19929;-61
2023/10/09 10:05:46;;;;;;;;;;;;;;;;;;4992272;28;20008;-61
2023/10/09 10:08:12;;;;;;;;;;;;;;;;;;4992033;28;20366;-61
2023/10/09 10:10:49;;;;;;;;;;;;;;;;;;4991914;28;19926;-62
2023/10/09 10:13:21;;;;;;;;;;;;;;;;;;4992574;28;19928;-61
2023/10/09 10:15:47;;;;;;;;;;;;;;;;;;4992376;28;19985;-61
2023/10/09 10:18:18;;;;;;;;;;;;;;;;;;4974856;28;19921;-61
2023/10/09 10:20:45;;;;;;;;;;;;;;;;;;4992520;28;19922;-61
2023/10/09 10:23:12;;;;;;;;;;;;;;;;;;4992309;28;20673;-61
2023/10/09 10:25:49;;;;;;;;;;;;;;;;;;4992356;28;19922;-61
2023/10/09 10:28:15;;;;;;;;;;;;;;;;;;4975195;28;19921;-61
2023/10/09 10:30:43;;;;;;;;;;;;;;;;;;4992463;28;19949;-61
2023/10/09 10:33:09;;;;;;;;;;;;;;;;;;4974968;28;20005;-61
2023/10/09 10:38:15;;;;;;;;;;;;;;;;;;4992396;28;19968;-61
2023/10/09 10:40:45;;;;;;;;;;;;;;;;;;4992349;28;20032;-60
2023/10/09 10:43:30;;;;;;;;;;;;;;;;;;4992148;28;20415;-61
2023/10/09 10:45:57;;;;;;;;;;;;;;;;;;4974559;28;19922;-61
2023/10/09 10:48:37;;;;;;;;;;;;;;;;;;4992350;28;19933;-60
2023/10/09 10:51:03;;;;;;;;;;;;;;;;;;4995850;28;19934;-60
2023/10/09 10:53:34;;;;;;;;;;;;;;;;;;4993059;28;19939;-61
2023/10/09 10:58:47;;;;;;;;;;;;;;;;;;5015521;28;19968;-60
2023/10/09 11:01:13;;;;;;;;;;;;;;;;;;4997690;28;19921;-61
2023/10/09 11:03:55;;;;;;;;;;;;;;;;;;5015622;28;19988;-60
2023/10/09 11:06:21;;;;;;;;;;;;;;;;;;5015561;28;20024;-61
2023/10/09 11:08:59;;;;;;;;;;;;;;;;;;4997966;28;19971;-61
2023/10/09 11:11:32;;;;;;;;;;;;;;;;;;5002576;28;19922;-60
2023/10/09 11:13:58;;;;;;;;;;;;;;;;;;4995754;28;20017;-60
2023/10/09 11:16:43;;;;;;;;;;;;;;;;;;4994040;28;19933;-60
2023/10/09 11:22:28;;;;;;;;;;;;;;;;;;4995263;28;19922;-61
2023/10/09 11:24:45;;;;;;;;;;;;;;;;;;4995156;28;19921;-60
2023/10/09 11:27:18;;;;;;;;;;;;;;;;;;4995390;28;19996;-61
2023/10/09 11:32:17;;;;;;;;;;;;;;;;;;4995165;28;19921;-61
2023/10/09 11:34:51;;;;;;;;;;;;;;;;;;4977953;28;20476;-61
2023/10/09 11:37:32;;;;;;;;;;;;;;;;;;4977509;28;20323;-61
2023/10/09 11:39:58;;;;;;;;;;;;;;;;;;4977574;28;19922;-61
2023/10/09 11:42:59;;;;;;;;;;;;;;;;;;4995288;28;20331;-60
2023/10/09 11:45:19;;;;;;;;;;;;;;;;;;4992880;28;19925;-60
2023/10/09 11:47:56;;;;;;;;;;;;;;;;;;4995089;28;19972;-60
2023/10/09 11:50:30;;;;;;;;;;;;;;;;;;4994947;28;19973;-61
2023/10/09 11:53:08;;;;;;;;;;;;;;;;;;4987740;28;20004;-60
2023/10/09 11:55:34;;;;;;;;;;;;;;;;;;5013930;28;20611;-61
2023/10/09 11:58:02;;;;;;;;;;;;;;;;;;5014401;28;19970;-61
2023/10/09 12:00:32;;;;;;;;;;;;;;;;;;5013772;28;19925;-61
2023/10/09 12:03:05;;;;;;;;;;;;;;;;;;5014213;28;19921;-61
2023/10/09 12:05:30;;;;;;;;;;;;;;;;;;5014228;28;20016;-60
2023/10/09 12:07:58;;;;;;;;;;;;;;;;;;5012922;28;20004;-60
2023/10/09 12:10:26;;;;;;;;;;;;;;;;;;5013900;28;20012;-60
2023/10/09 12:12:52;;;;;;;;;;;;;;;;;;5013975;28;19929;-60
2023/10/09 12:15:19;;;;;;;;;;;;;;;;;;4996017;28;19928;-60
2023/10/09 12:17:46;;;;;;;;;;;;;;;;;;4999994;28;19929;-60
2023/10/09 12:20:29;;;;;;;;;;;;;;;;;;4993477;28;19929;-60
2023/10/09 12:22:57;;;;;;;;;;;;;;;;;;4993543;28;19928;-60
2023/10/09 12:25:23;;;;;;;;;;;;;;;;;;4993592;28;20269;-60
2023/10/09 12:27:49;;;;;;;;;;;;;;;;;;4993246;28;19929;-60
2023/10/09 12:30:15;;;;;;;;;;;;;;;;;;4993516;28;19965;-60
2023/10/09 12:32:41;;;;;;;;;;;;;;;;;;4993102;28;19925;-61
2023/10/09 12:35:17;;;;;;;;;;;;;;;;;;4993302;28;20307;-61
2023/10/09 12:37:42;;;;;;;;;;;;;;;;;;4993083;28;19926;-61
2023/10/09 12:40:10;;;;;;;;;;;;;;;;;;4993222;28;19926;-61
2023/10/09 12:42:36;;;;;;;;;;;;;;;;;;4993144;28;19926;-61
2023/10/09 12:45:08;;;;;;;;;;;;;;;;;;4993075;28;19990;-61
2023/10/09 12:47:33;;;;;;;;;;;;;;;;;;4975385;28;19968;-61
2023/10/09 12:49:59;;;;;;;;;;;;;;;;;;4976355;28;19961;-61
2023/10/09 12:52:29;;;;;;;;;;;;;;;;;;5000096;28;19925;-62
2023/10/09 12:54:55;;;;;;;;;;;;;;;;;;5013215;28;19967;-62
2023/10/09 12:57:21;;;;;;;;;;;;;;;;;;5013047;28;19929;-62
2023/10/09 12:59:48;;;;;;;;;;;;;;;;;;4995591;28;19925;-62
2023/10/09 13:02:28;;;;;;;;;;;;;;;;;;5012956;28;19968;-62
2023/10/09 13:04:53;;;;;;;;;;;;;;;;;;5013322;28;19921;-62
2023/10/09 13:07:21;;;;;;;;;;;;;;;;;;5013190;28;19929;-62
2023/10/09 13:10:08;;;;;;;;;;;;;;;;;;4995339;28;19972;-62
2023/10/09 13:12:33;;;;;;;;;;;;;;;;;;5011771;28;19922;-62
2023/10/09 13:14:59;;;;;;;;;;;;;;;;;;4995288;28;20352;-62
2023/10/09 13:17:26;;;;;;;;;;;;;;;;;;4984702;28;19937;-62
2023/10/09 13:19:52;;;;;;;;;;;;;;;;;;4993413;28;19948;-62
2023/10/09 13:22:18;;;;;;;;;;;;;;;;;;4993170;28;20377;-62
2023/10/09 13:24:48;;;;;;;;;;;;;;;;;;4993303;28;19933;-62
2023/10/09 13:27:21;;;;;;;;;;;;;;;;;;4993061;28;20032;-63
2023/10/09 13:29:47;;;;;;;;;;;;;;;;;;4976015;28;20000;-62
2023/10/09 13:32:14;;;;;;;;;;;;;;;;;;4993120;28;19961;-61
2023/10/09 13:34:44;;;;;;;;;;;;;;;;;;4992969;28;20470;-61
2023/10/09 13:37:13;;;;;;;;;;;;;;;;;;4992787;28;20402;-61
2023/10/09 13:39:51;;;;;;;;;;;;;;;;;;4992837;28;19929;-61
2023/10/09 13:42:17;;;;;;;;;;;;;;;;;;4992448;28;19928;-60
2023/10/09 13:44:43;;;;;;;;;;;;;;;;;;4974526;28;19929;-61
2023/10/09 13:47:19;;;;;;;;;;;;;;;;;;4992013;28;19922;-61
2023/10/09 13:49:44;;;;;;;;;;;;;;;;;;4991912;28;20032;-61
2023/10/09 13:52:17;;;;;;;;;;;;;;;;;;4978652;28;20008;-61
2023/10/09 13:54:47;;;;;;;;;;;;;;;;;;4993716;28;19972;-61
2023/10/09 13:57:14;;;;;;;;;;;;;;;;;;4994537;28;19926;-61
2023/10/09 13:59:43;;;;;;;;;;;;;;;;;;5012385;28;19925;-61
2023/10/09 14:02:09;;;;;;;;;;;;;;;;;;5012279;28;19982;-60
2023/10/09 14:04:35;;;;;;;;;;;;;;;;;;5012209;28;19922;-60
2023/10/09 14:07:05;;;;;;;;;;;;;;;;;;4994507;28;20298;-60
2023/10/09 14:09:31;;;;;;;;;;;;;;;;;;5011940;28;20264;-60
2023/10/09 14:12:07;;;;;;;;;;;;;;;;;;4994417;28;20000;-61
2023/10/09 14:14:33;;;;;;;;;;;;;;;;;;4994332;28;19921;-60
2023/10/09 14:16:59;;;;;;;;;;;;;;;;;;4987347;28;20103;-60
2023/10/09 14:19:24;;;;;;;;;;;;;;;;;;4992200;28;20613;-60
2023/10/09 14:21:51;;;;;;;;;;;;;;;;;;4992366;28;19925;-60
2023/10/09 14:24:18;;;;;;;;;;;;;;;;;;4993990;28;19953;-61
2023/10/09 14:26:45;;;;;;;;;;;;;;;;;;4978915;28;20500;-61
2023/10/09 14:29:14;;;;;;;;;;;;;;;;;;4995105;28;19922;-61
2023/10/09 14:31:40;;;;;;;;;;;;;;;;;;4996583;28;19996;-61
2023/10/09 14:34:09;;;;;;;;;;;;;;;;;;4996326;28;20359;-61
2023/10/09 14:36:35;;;;;;;;;;;;;;;;;;4996447;28;19976;-61
2023/10/09 14:39:01;;;;;;;;;;;;;;;;;;4996273;28;19925;-61
2023/10/09 14:41:27;;;;;;;;;;;;;;;;;;4996433;28;19925;-61
2023/10/09 14:43:53;;;;;;;;;;;;;;;;;;4978535;28;19928;-61
2023/10/09 14:46:25;;;;;;;;;;;;;;;;;;4978506;28;19925;-61
2023/10/09 14:48:52;;;;;;;;;;;;;;;;;;4995975;28;20734;-61
2023/10/09 14:51:26;;;;;;;;;;;;;;;;;;4978898;28;20263;-61
2023/10/09 14:53:53;;;;;;;;;;;;;;;;;;4996237;28;20271;-61
2023/10/09 14:56:28;;;;;;;;;;;;;;;;;;4997902;28;20015;-62
2023/10/09 14:58:56;;;;;;;;;;;;;;;;;;4997593;28;19972;-62
2023/10/09 15:01:24;;;;;;;;;;;;;;;;;;4997860;28;19925;-62
2023/10/09 15:03:53;;;;;;;;;;;;;;;;;;5015546;28;19929;-62
2023/10/09 15:06:18;;;;;;;;;;;;;;;;;;5015525;28;20020;-62
2023/10/09 15:08:46;;;;;;;;;;;;;;;;;;5015222;28;20009;-62
2023/10/09 15:11:12;;;;;;;;;;;;;;;;;;5015168;28;19925;-62
2023/10/09 15:13:39;;;;;;;;;;;;;;;;;;5015459;28;20314;-62
2023/10/09 15:16:05;;;;;;;;;;;;;;;;;;5015176;28;19969;-62
2023/10/09 15:18:37;;;;;;;;;;;;;;;;;;4995991;28;19968;-62
2023/10/09 15:21:03;;;;;;;;;;;;;;;;;;4995647;28;19922;-62
2023/10/09 15:23:29;;;;;;;;;;;;;;;;;;4995405;28;20451;-62
2023/10/09 15:25:55;;;;;;;;;;;;;;;;;;4977985;28;20295;-62
2023/10/09 15:28:21;;;;;;;;;;;;;;;;;;4995520;28;19922;-62
2023/10/09 15:30:47;;;;;;;;;;;;;;;;;;4995282;28;19929;-62
2023/10/09 15:33:16;;;;;;;;;;;;;;;;;;4995381;28;19928;-62
2023/10/09 15:35:42;;;;;;;;;;;;;;;;;;4976317;28;20423;-62
2023/10/09 15:38:12;;;;;;;;;;;;;;;;;;4995172;28;20017;-60
2023/10/09 15:40:38;;;;;;;;;;;;;;;;;;4995104;28;19928;-61
2023/10/09 15:43:04;;;;;;;;;;;;;;;;;;4994943;28;20720;-61
2023/10/09 15:45:31;;;;;;;;;;;;;;;;;;4993627;28;20019;-60
2023/10/09 15:47:57;;;;;;;;;;;;;;;;;;4995040;28;20052;-60
2023/10/09 15:50:24;;;;;;;;;;;;;;;;;;4977466;28;20050;-61
2023/10/09 15:52:51;;;;;;;;;;;;;;;;;;5004455;28;19921;-61
2023/10/09 15:55:20;;;;;;;;;;;;;;;;;;5013958;28;19929;-61
2023/10/09 15:57:48;;;;;;;;;;;;;;;;;;5014313;28;19933;-61
2023/10/09 16:00:14;;;;;;;;;;;;;;;;;;4996283;28;19929;-61
2023/10/09 16:02:40;;;;;;;;;;;;;;;;;;5014234;28;19926;-61
2023/10/09 16:05:06;;;;;;;;;;;;;;;;;;5014167;28;19925;-62
2023/10/09 16:07:32;;;;;;;;;;;;;;;;;;5014054;28;19952;-61
2023/10/09 16:09:58;;;;;;;;;;;;;;;;;;5014033;28;20275;-60
2023/10/09 16:12:27;;;;;;;;;;;;;;;;;;5014067;28;19937;-61
2023/10/09 16:14:53;;;;;;;;;;;;;;;;;;5013997;28;19991;-61
2023/10/09 16:17:19;;;;;;;;;;;;;;;;;;4986650;28;19925;-61
2023/10/09 16:19:45;;;;;;;;;;;;;;;;;;4994369;28;19928;-61
2023/10/09 16:22:13;;;;;;;;;;;;;;;;;;4994142;28;20422;-61
2023/10/09 16:24:39;;;;;;;;;;;;;;;;;;4994167;28;19922;-60
2023/10/09 16:27:05;;;;;;;;;;;;;;;;;;4994208;28;19972;-60
2023/10/09 16:29:32;;;;;;;;;;;;;;;;;;4994186;28;19921;-61
2023/10/09 16:31:58;;;;;;;;;;;;;;;;;;4994292;28;19926;-61
2023/10/09 16:34:27;;;;;;;;;;;;;;;;;;4994063;28;19929;-61
2023/10/09 16:36:53;;;;;;;;;;;;;;;;;;4993914;28;19930;-62
2023/10/09 16:39:22;;;;;;;;;;;;;;;;;;4993999;28;19992;-62
2023/10/09 16:41:48;;;;;;;;;;;;;;;;;;4993847;28;19926;-62
2023/10/09 16:44:17;;;;;;;;;;;;;;;;;;4993849;28;19922;-61
2023/10/09 16:46:44;;;;;;;;;;;;;;;;;;4993536;28;20012;-62
2023/10/09 16:49:13;;;;;;;;;;;;;;;;;;4992445;28;19922;-61
2023/10/09 16:51:39;;;;;;;;;;;;;;;;;;4992515;28;19930;-62
2023/10/09 16:54:06;;;;;;;;;;;;;;;;;;4995608;28;19929;-62
2023/10/09 16:56:33;;;;;;;;;;;;;;;;;;4995481;28;19952;-62
2023/10/09 16:59:00;;;;;;;;;;;;;;;;;;5011954;28;19929;-62
2023/10/09 17:01:27;;;;;;;;;;;;;;;;;;5013246;28;19949;-61
2023/10/09 17:03:57;;;;;;;;;;;;;;;;;;4995457;28;19932;-61
2023/10/09 17:06:24;;;;;;;;;;;;;;;;;;5013129;28;19929;-59
2023/10/09 17:08:50;;;;;;;;;;;;;;;;;;5011903;28;19922;-61
2023/10/09 17:11:20;;;;;;;;;;;;;;;;;;5012918;28;19933;-61
2023/10/09 17:13:47;;;;;;;;;;;;;;;;;;5013059;28;20021;-61
2023/10/09 17:16:21;;;;;;;;;;;;;;;;;;5012217;28;19929;-61
2023/10/09 17:18:47;;;;;;;;;;;;;;;;;;4993063;28;19922;-61
2023/10/09 17:21:13;;;;;;;;;;;;;;;;;;4992993;28;19925;-61
2023/10/09 17:23:39;;;;;;;;;;;;;;;;;;4975289;28;20004;-60
2023/10/09 17:26:05;;;;;;;;;;;;;;;;;;4974889;28;19928;-60
2023/10/09 17:28:30;;;;;;;;;;;;;;;;;;4992418;28;20756;-60
2023/10/09 17:30:58;;;;;;;;;;;;;;;;;;4991996;28;20376;-61
2023/10/09 17:33:25;;;;;;;;;;;;;;;;;;4974501;28;19930;-62
2023/10/09 17:35:51;;;;;;;;;;;;;;;;;;4990723;28;19972;-61
2023/10/09 17:38:18;;;;;;;;;;;;;;;;;;4991858;28;19921;-61
2023/10/09 17:40:44;;;;;;;;;;;;;;;;;;4992407;28;19922;-61
2023/10/09 17:43:09;;;;;;;;;;;;;;;;;;4992797;28;19976;-61
2023/10/09 17:45:35;;;;;;;;;;;;;;;;;;4975273;28;19922;-61
2023/10/09 17:48:08;;;;;;;;;;;;;;;;;;4992731;28;19926;-61
2023/10/09 17:50:34;;;;;;;;;;;;;;;;;;4992880;28;19953;-61
2023/10/09 17:53:04;;;;;;;;;;;;;;;;;;5003411;28;20387;-60
2023/10/09 17:55:30;;;;;;;;;;;;;;;;;;4994515;28;19975;-60
2023/10/09 17:57:56;;;;;;;;;;;;;;;;;;5011781;28;20008;-61
2023/10/09 18:00:22;;;;;;;;;;;;;;;;;;4987701;28;20108;-60
2023/10/09 18:02:48;;;;;;;;;;;;;;;;;;4992606;28;20360;-61
2023/10/09 18:05:13;;;;;;;;;;;;;;;;;;4992658;28;19922;-61
2023/10/09 18:07:41;;;;;;;;;;;;;;;;;;4974878;28;19943;-61
2023/10/09 18:10:09;;;;;;;;;;;;;;;;;;4992647;28;20327;-60
2023/10/09 18:12:36;;;;;;;;;;;;;;;;;;4992294;28;19926;-61
2023/10/09 18:15:05;;;;;;;;;;;;;;;;;;4992606;28;19930;-61
2023/10/09 18:17:32;;;;;;;;;;;;;;;;;;4974483;28;19929;-61
2023/10/09 18:19:58;;;;;;;;;;;;;;;;;;4992557;28;19933;-61
2023/10/09 18:22:28;;;;;;;;;;;;;;;;;;4991748;28;19932;-61
2023/10/09 18:24:55;;;;;;;;;;;;;;;;;;4991451;28;20390;-61
2023/10/09 18:27:22;;;;;;;;;;;;;;;;;;4991797;28;19976;-61
2023/10/09 18:29:48;;;;;;;;;;;;;;;;;;4974686;28;19984;-61
2023/10/09 18:32:14;;;;;;;;;;;;;;;;;;4991207;28;20340;-61
2023/10/09 18:34:40;;;;;;;;;;;;;;;;;;4973776;28;19977;-61
2023/10/09 18:37:07;;;;;;;;;;;;;;;;;;4973710;28;19926;-61
2023/10/09 18:39:33;;;;;;;;;;;;;;;;;;4991330;28;19922;-61
2023/10/09 18:41:59;;;;;;;;;;;;;;;;;;4991207;28;20450;-60
2023/10/09 18:44:25;;;;;;;;;;;;;;;;;;4991118;28;20021;-61
2023/10/09 18:46:53;;;;;;;;;;;;;;;;;;4991323;28;19922;-61
2023/10/09 18:49:19;;;;;;;;;;;;;;;;;;4991181;28;20012;-61
2023/10/09 18:51:46;;;;;;;;;;;;;;;;;;4992647;28;20013;-60